Time;durP1;ratioP1;P1;durP2;ratioP2;P2;SDS_P1;SDS_P2;PMS_P1;PMS_P2;Temp;Humidity;BMP_temperature;BMP_pressure;BME280_temperature;BME280_humidity;BME280_pressure;Samples;Min_cycle;Max_cycle;Signal;HPM_P1;HPM_P2
2022/01/22 00:01:47;;;;;;;9.13;4.57;;;51.50;2227.20;;;;;;4916360;29;19907;-77
2022/01/22 00:04:13;;;;;;;;;;;51.40;2227.20;;;;;;4916753;29;20043;-75
2022/01/22 00:06:38;;;;;;;12.82;4.30;;;51.50;2227.20;;;;;;4916069;29;19907;-76
2022/01/22 00:09:05;;;;;;;9.90;4.28;;;26.50;2201.60;;;;;;4916228;29;20034;-76
2022/01/22 00:11:36;;;;;;;11.27;4.47;;;51.30;2227.20;;;;;;4916158;29;20036;-74
2022/01/22 00:16:46;;;;;;;15.13;5.70;;;51.20;2227.20;;;;;;4916611;29;20102;-75
2022/01/22 00:19:12;;;;;;;17.90;6.05;;;51.30;2227.20;;;;;;4916160;29;20036;-75
2022/01/22 00:21:38;;;;;;;;;;;51.30;2227.20;;;;;;4916587;29;20375;-75
2022/01/22 00:24:06;;;;;;;10.65;4.88;;;51.20;2227.20;;;;;;4915929;29;20360;-75
2022/01/22 00:26:32;;;;;;;11.50;5.40;;;51.20;2227.20;;;;;;4916483;29;20107;-76
2022/01/22 00:28:57;;;;;;;;;;;51.40;2227.20;;;;;;4916602;29;20079;-77
2022/01/22 00:31:23;;;;;;;21.80;5.00;;;26.50;2201.60;;;;;;4916524;29;19907;-78
2022/01/22 00:33:49;;;;;;;;;;;51.20;2227.20;;;;;;4916889;29;20028;-78
2022/01/22 00:36:14;;;;;;;11.35;3.65;;;51.20;2227.20;;;;;;4915004;29;19915;-77
2022/01/22 00:38:40;;;;;;;7.65;3.42;;;51.20;2227.20;;;;;;4916367;29;20052;-77
2022/01/22 00:41:06;;;;;;;;;;;26.50;2201.60;;;;;;4916596;29;20032;-77
2022/01/22 00:43:31;;;;;;;9.73;3.72;;;26.50;2201.60;;;;;;4899457;29;19907;-77
2022/01/22 00:45:57;;;;;;;;;;;26.50;2201.60;;;;;;4916487;29;20051;-75
2022/01/22 00:48:23;;;;;;;14.90;3.85;;;51.20;2227.20;;;;;;4920219;29;19959;-77
2022/01/22 00:50:51;;;;;;;;;;;51.20;2227.20;;;;;;4920169;29;20032;-75
2022/01/22 00:53:17;;;;;;;12.45;3.35;;;26.40;2201.60;;;;;;4918628;29;19950;-78
2022/01/22 00:55:43;;;;;;;;;;;26.50;2201.60;;;;;;4919977;29;20410;-76
2022/01/22 00:58:08;;;;;;;9.77;3.30;;;26.40;2201.60;;;;;;4902787;29;20006;-77
2022/01/22 01:00:34;;;;;;;;;;;26.50;2201.60;;;;;;4919888;29;20020;-75
2022/01/22 01:03:00;;;;;;;7.25;3.58;;;26.50;2201.60;;;;;;4919388;29;19924;-75
2022/01/22 01:05:25;;;;;;;;;;;26.40;2201.60;;;;;;4920129;29;20100;-77
2022/01/22 01:07:51;;;;;;;9.40;3.08;;;26.40;2201.60;;;;;;4919294;29;19911;-78
2022/01/22 01:10:17;;;;;;;;;;;26.50;2201.60;;;;;;4920075;29;20032;-76
2022/01/22 01:12:44;;;;;;;6.00;3.55;;;26.50;2201.60;;;;;;4918234;29;19911;-76
2022/01/22 01:15:36;;;;;;;8.30;3.90;;;51.20;2227.20;;;;;;4919461;29;20075;-76
2022/01/22 01:34:31;;;;;;;7.28;3.45;;;51.40;2227.20;;;;;;4919182;29;20543;-76
2022/01/22 01:36:57;;;;;;;;;;;51.60;2227.20;;;;;;4919561;29;20032;-77
2022/01/22 01:39:28;;;;;;;8.27;3.50;;;51.50;2227.20;;;;;;4918572;29;19918;-77
2022/01/22 01:42:06;;;;;;;10.65;3.42;;;51.40;2227.20;;;;;;4918978;29;20501;-76
2022/01/22 01:44:31;;;;;;;;;;;51.40;2227.20;;;;;;4919332;29;20032;-77
2022/01/22 01:47:00;;;;;;;11.65;3.03;;;51.50;2227.20;;;;;;4919146;29;20006;-76
2022/01/22 01:49:28;;;;;;;6.57;2.95;;;51.40;2227.20;;;;;;4919340;29;20477;-78
2022/01/22 01:51:57;;;;;;;9.32;3.20;;;51.50;2227.20;;;;;;4902153;29;20465;-77
2022/01/22 01:54:48;;;;;;;9.23;3.15;;;51.60;2227.20;;;;;;4917321;29;20024;-77
2022/01/22 01:57:38;;;;;;;7.15;3.03;;;51.60;2227.20;;;;;;4918504;29;20088;-77
2022/01/22 02:00:07;;;;;;;5.60;2.90;;;51.60;2227.20;;;;;;4918001;29;20024;-79
2022/01/22 02:02:34;;;;;;;9.88;3.83;;;51.50;2227.20;;;;;;4918721;29;20083;-81
2022/01/22 02:05:00;;;;;;;8.98;3.53;;;51.60;2227.20;;;;;;4918554;29;20039;-75
2022/01/22 02:07:26;;;;;;;11.65;5.15;;;51.60;2227.20;;;;;;4918385;29;20396;-76
2022/01/22 02:09:52;;;;;;;;;;;51.60;2227.20;;;;;;4918568;29;20455;-76
2022/01/22 02:12:47;;;;;;;9.15;3.50;;;51.60;2227.20;;;;;;4901398;29;20419;-78
2022/01/22 02:23:38;;;;;;;11.18;3.20;;;51.50;2227.20;;;;;;4918162;29;20043;-75
2022/01/22 02:26:06;;;;;;;9.90;3.17;;;51.50;2227.20;;;;;;4916756;29;20024;-76
2022/01/22 02:28:32;;;;;;;6.97;3.47;;;51.40;2227.20;;;;;;4918065;29;20458;-74
2022/01/22 02:31:14;;;;;;;10.48;3.10;;;51.60;2227.20;;;;;;4918112;29;20497;-77
2022/01/22 02:34:37;;;;;;;5.35;2.78;;;51.60;2227.20;;;;;;4917951;29;20389;-76
2022/01/22 02:39:19;;;;;;;5.53;2.90;;;51.50;2227.20;;;;;;4917325;29;20482;-75
2022/01/22 02:41:47;;;;;;;5.90;2.80;;;51.30;2227.20;;;;;;4916559;29;20052;-77
2022/01/22 02:44:25;;;;;;;7.65;3.97;;;51.30;2227.20;;;;;;4917784;29;20035;-77
2022/01/22 02:46:51;;;;;;;8.02;3.30;;;51.40;2227.20;;;;;;4917970;29;20082;-76
2022/01/22 02:49:17;;;;;;;5.68;2.50;;;51.40;2227.20;;;;;;4917548;29;20119;-77
2022/01/22 02:51:43;;;;;;;6.78;3.00;;;51.30;2227.20;;;;;;4900560;29;20028;-77
2022/01/22 02:54:09;;;;;;;6.88;2.58;;;51.30;2227.20;;;;;;4917599;29;20500;-75
2022/01/22 02:56:34;;;;;;;;;;;51.30;2227.20;;;;;;4917794;29;20039;-77
2022/01/22 02:59:00;;;;;;;6.10;2.60;;;51.20;2227.20;;;;;;4917419;29;19971;-78
2022/01/22 03:01:26;;;;;;;;;;;51.20;2227.20;;;;;;4917766;29;20035;-76
2022/01/22 03:03:52;;;;;;;7.05;3.03;;;26.50;2201.60;;;;;;4917597;29;20431;-75
2022/01/22 03:06:18;;;;;;;6.32;2.45;;;26.50;2201.60;;;;;;4917203;29;20425;-77
2022/01/22 03:08:46;;;;;;;7.85;2.97;;;26.50;2201.60;;;;;;4917191;29;20035;-75
2022/01/22 03:11:22;;;;;;;7.45;3.05;;;51.20;2227.20;;;;;;4916150;29;20044;-77
2022/01/22 03:29:20;;;;;;;6.70;3.38;;;51.20;2227.20;;;;;;4917266;29;20039;-75
2022/01/22 03:31:47;;;;;;;8.30;2.90;;;26.50;2201.60;;;;;;4899497;29;20047;-77
2022/01/22 03:34:14;;;;;;;6.45;2.33;;;26.40;2201.60;;;;;;4916630;29;20481;-76
2022/01/22 03:36:40;;;;;;;4.47;1.95;;;26.40;2201.60;;;;;;4916795;29;20086;-76
2022/01/22 03:39:06;;;;;;;;;;;26.40;2201.60;;;;;;4916873;29;20063;-77
2022/01/22 03:41:33;;;;;;;10.52;2.05;;;26.30;2201.60;;;;;;4916903;29;19916;-76
2022/01/22 03:44:00;;;;;;;8.95;2.80;;;26.20;2201.60;;;;;;4899658;29;20477;-76
2022/01/22 03:46:25;;;;;;;7.28;2.30;;;26.20;2201.60;;;;;;4899767;29;20047;-77
2022/01/22 03:48:51;;;;;;;;;;;26.20;2201.60;;;;;;4916850;29;20477;-75
2022/01/22 03:51:17;;;;;;;7.72;3.70;;;26.20;2201.60;;;;;;4916637;29;19911;-76
2022/01/22 03:53:43;;;;;;;6.65;2.70;;;26.00;2201.60;;;;;;4916402;29;20020;-77
2022/01/22 03:56:10;;;;;;;;;;;26.00;2201.60;;;;;;4917067;29;20119;-76
2022/01/22 03:58:41;;;;;;;5.03;2.03;;;26.10;2201.60;;;;;;4916587;29;19923;-76
2022/01/22 04:04:05;;;;;;;8.45;3.15;;;26.10;2201.60;;;;;;4916709;29;20039;-76
2022/01/22 04:09:04;;;;;;;6.72;3.08;;;26.10;2201.60;;;;;;4916082;29;20028;-76
2022/01/22 04:11:31;;;;;;;10.48;3.15;;;26.00;2201.60;;;;;;4916333;29;20047;-76
2022/01/22 04:14:01;;;;;;;7.00;3.30;;;26.00;2201.60;;;;;;4916300;29;20171;-77
2022/01/22 04:16:28;;;;;;;12.43;3.72;;;26.00;2201.60;;;;;;4916390;29;20032;-75
2022/01/22 04:27:21;;;;;;;9.75;3.78;;;26.40;2201.60;;;;;;4922495;29;20074;-76
2022/01/22 04:29:47;;;;;;;10.05;3.70;;;26.40;2201.60;;;;;;4922551;29;20051;-77
2022/01/22 04:32:13;;;;;;;8.77;4.03;;;26.40;2201.60;;;;;;4922524;29;20389;-76
2022/01/22 04:34:39;;;;;;;;;;;26.40;2201.60;;;;;;4922671;29;20099;-76
2022/01/22 04:37:04;;;;;;;7.85;3.55;;;26.20;2201.60;;;;;;4905089;29;19907;-77
2022/01/22 04:39:30;;;;;;;;;;;26.30;2201.60;;;;;;4922374;29;20063;-75
2022/01/22 04:41:57;;;;;;;10.85;3.63;;;26.30;2201.60;;;;;;4905125;29;19907;-75
2022/01/22 04:44:31;;;;;;;6.93;2.97;;;26.30;2201.60;;;;;;4922497;29;20060;-78
2022/01/22 04:54:57;;;;;;;7.35;2.90;;;26.40;2201.60;;;;;;4922594;29;20039;-75
2022/01/22 04:55:27;;;;;;;11.57;5.28;;;26.40;2201.60;;;;;;4922110;29;20039;-79
2022/01/22 04:57:53;;;;;;;13.27;4.00;;;26.50;2201.60;;;;;;4922273;29;20040;-81
2022/01/22 05:00:19;;;;;;;10.70;5.28;;;26.50;2201.60;;;;;;4921151;29;20036;-77
2022/01/22 05:02:44;;;;;;;;;;;51.20;2227.20;;;;;;4922516;29;20392;-78
2022/01/22 05:05:10;;;;;;;13.85;4.22;;;51.20;2227.20;;;;;;4922253;29;19915;-75
2022/01/22 05:07:36;;;;;;;;;;;51.30;2227.20;;;;;;4922359;29;20103;-77
2022/01/22 05:10:04;;;;;;;7.90;3.92;;;51.30;2227.20;;;;;;4922234;29;19919;-75
2022/01/22 05:12:30;;;;;;;9.02;4.13;;;51.40;2227.20;;;;;;4921903;29;20024;-76
2022/01/22 05:14:55;;;;;;;11.25;5.05;;;51.50;2227.20;;;;;;4922034;29;20051;-76
2022/01/22 05:17:21;;;;;;;14.23;5.35;;;51.40;2227.20;;;;;;4922085;29;20075;-77
2022/01/22 05:19:56;;;;;;;;;;;51.60;2227.20;;;;;;4922215;29;20020;-75
2022/01/22 05:25:11;;;;;;;5.22;2.65;;;51.70;2227.20;;;;;;4921901;29;20062;-76
2022/01/22 05:37:45;;;;;;;17.58;6.53;;;51.50;2227.20;;;;;;4918560;29;20153;-76
2022/01/22 05:40:12;;;;;;;10.05;5.22;;;51.40;2227.20;;;;;;4918613;29;20068;-78
2022/01/22 05:42:37;;;;;;;;;;;51.20;2227.20;;;;;;4919239;29;20028;-77
2022/01/22 05:45:05;;;;;;;15.38;3.08;;;26.50;2201.60;;;;;;4918835;29;19907;-77
2022/01/22 05:47:31;;;;;;;6.85;3.33;;;26.50;2201.60;;;;;;4918670;29;20046;-75
2022/01/22 05:49:57;;;;;;;6.65;2.95;;;51.20;2227.20;;;;;;4918619;29;20477;-76
2022/01/22 05:52:39;;;;;;;;;;;51.20;2227.20;;;;;;4919131;29;20062;-76
2022/01/22 06:00:34;;;;;;;7.45;3.55;;;26.50;2201.60;;;;;;4918723;29;20039;-75
2022/01/22 06:03:00;;;;;;;7.65;3.72;;;26.50;2201.60;;;;;;4918691;29;20035;-76
2022/01/22 06:05:25;;;;;;;;;;;26.40;2201.60;;;;;;4918868;29;20062;-76
2022/01/22 06:07:51;;;;;;;8.57;2.90;;;26.50;2201.60;;;;;;4918396;29;19915;-76
2022/01/22 06:10:18;;;;;;;;;;;26.40;2201.60;;;;;;4918687;29;20457;-75
2022/01/22 06:15:14;;;;;;;10.38;3.55;;;26.40;2201.60;;;;;;4918159;29;20046;-76
2022/01/22 06:17:40;;;;;;;;;;;26.40;2201.60;;;;;;4918565;29;20040;-77
2022/01/22 06:20:07;;;;;;;7.20;3.45;;;26.50;2201.60;;;;;;4901133;29;19911;-76
2022/01/22 06:22:33;;;;;;;9.85;3.55;;;51.20;2227.20;;;;;;4918299;29;20079;-77
2022/01/22 06:24:59;;;;;;;7.15;3.42;;;51.30;2227.20;;;;;;4917984;29;20020;-78
2022/01/22 06:27:25;;;;;;;13.57;5.95;;;51.30;2227.20;;;;;;4917958;29;20031;-79
2022/01/22 06:29:51;;;;;;;;;;;51.40;2227.20;;;;;;4918576;29;20397;-75
2022/01/22 06:32:16;;;;;;;9.52;5.00;;;51.30;2227.20;;;;;;4917742;29;19907;-77
2022/01/22 06:34:42;;;;;;;9.23;3.58;;;51.50;2227.20;;;;;;4916421;29;20552;-76
2022/01/22 06:37:08;;;;;;;;;;;51.50;2227.20;;;;;;4917911;29;20035;-76
2022/01/22 06:39:51;;;;;;;10.73;3.97;;;51.60;2227.20;;;;;;4917805;29;20374;-77
2022/01/22 06:42:17;;;;;;;10.70;4.80;;;51.60;2227.20;;;;;;4917463;29;20024;-77
2022/01/22 06:44:42;;;;;;;;;;;51.70;2227.20;;;;;;4917855;29;20094;-76
2022/01/22 06:47:08;;;;;;;13.85;5.30;;;51.80;2227.20;;;;;;4917793;29;19907;-76
2022/01/22 06:49:34;;;;;;;;;;;51.80;2227.20;;;;;;4917849;29;20035;-76
2022/01/22 06:51:59;;;;;;;11.05;6.60;;;51.80;2227.20;;;;;;4917998;29;19907;-74
2022/01/22 06:54:25;;;;;;;;;;;51.90;2227.20;;;;;;4917778;29;20099;-75
2022/01/22 06:56:51;;;;;;;8.07;4.70;;;52.10;2227.20;;;;;;4917470;29;19929;-77
2022/01/22 06:59:16;;;;;;;;;;;76.80;2227.20;;;;;;4916445;29;20051;-76
2022/01/22 07:01:44;;;;;;;19.83;7.18;;;77.10;2227.20;;;;;;4917650;29;19935;-76
2022/01/22 07:04:10;;;;;;;20.75;11.15;;;77.10;2227.20;;;;;;4900366;29;20116;-76
2022/01/22 07:06:35;;;;;;;19.02;11.05;;;77.20;2227.20;;;;;;4917422;29;20462;-76
2022/01/22 07:09:01;;;;;;;14.07;7.97;;;77.20;2227.20;;;;;;4899918;29;20036;-76
2022/01/22 07:11:27;;;;;;;;;;;77.30;2227.20;;;;;;4917420;29;20032;-76
2022/01/22 07:13:52;;;;;;;21.90;9.65;;;77.30;2227.20;;;;;;4917332;29;19918;-75
2022/01/22 07:16:18;;;;;;;;;;;77.30;2227.20;;;;;;4917471;29;20111;-76
2022/01/22 07:18:44;;;;;;;31.10;13.60;;;77.30;2227.20;;;;;;4917194;29;19915;-77
2022/01/22 07:21:20;;;;;;;;;;;77.20;2227.20;;;;;;4900208;29;20570;-76
2022/01/22 07:26:16;;;;;;;12.95;5.20;;;52.10;2227.20;;;;;;4917062;29;20024;-76
2022/01/22 07:28:42;;;;;;;13.55;4.93;;;52.00;2227.20;;;;;;4916925;29;20540;-76
2022/01/22 07:31:09;;;;;;;15.23;5.50;;;51.80;2227.20;;;;;;4915650;29;20028;-78
2022/01/22 07:33:35;;;;;;;14.25;6.05;;;51.60;2227.20;;;;;;4917257;29;20032;-77
2022/01/22 07:36:03;;;;;;;11.35;5.65;;;51.70;2227.20;;;;;;4916937;29;20055;-79
2022/01/22 07:38:28;;;;;;;16.73;7.93;;;51.50;2227.20;;;;;;4916343;29;20051;-79
2022/01/22 07:40:54;;;;;;;7.65;4.75;;;51.50;2227.20;;;;;;4900112;29;20544;-79
2022/01/22 07:43:20;;;;;;;;;;;51.40;2227.20;;;;;;4917207;29;20043;-84
2022/01/22 07:45:46;;;;;;;39.63;17.15;;;51.30;2227.20;;;;;;4900371;29;19911;-76
2022/01/22 07:48:11;;;;;;;;;;;51.30;2227.20;;;;;;4917409;29;20397;-75
2022/01/22 07:50:37;;;;;;;18.92;9.65;;;51.30;2227.20;;;;;;4916752;29;19919;-83
2022/01/22 07:53:03;;;;;;;;;;;51.30;2227.20;;;;;;4908921;29;20080;-83
2022/01/22 07:55:29;;;;;;;11.32;5.22;;;51.30;2227.20;;;;;;4904571;29;19970;-77
2022/01/22 07:57:56;;;;;;;11.27;5.82;;;26.50;2201.60;;;;;;4907042;29;20029;-80
2022/01/22 08:00:21;;;;;;;13.05;4.88;;;51.20;2227.20;;;;;;4915681;29;20088;-88
2022/01/22 08:02:47;;;;;;;;;;;51.30;2227.20;;;;;;4901106;29;20036;-86
2022/01/22 08:05:13;;;;;;;15.10;5.10;;;51.40;2227.20;;;;;;4898105;29;20361;-75
2022/01/22 08:07:43;;;;;;;;;;;51.50;2227.20;;;;;;4898546;29;20124;-83
2022/01/22 08:10:10;;;;;;;11.75;4.95;;;51.40;2227.20;;;;;;4888472;29;20009;-78
2022/01/22 08:12:40;;;;;;;10.50;5.38;;;51.40;2227.20;;;;;;4908265;29;20492;-84
2022/01/22 08:15:08;;;;;;;10.50;4.38;;;51.30;2227.20;;;;;;4900461;29;20059;-83
2022/01/22 08:17:34;;;;;;;11.00;4.30;;;51.40;2227.20;;;;;;4898029;29;20060;-82
2022/01/22 08:20:00;;;;;;;;;;;51.20;2227.20;;;;;;4898435;29;20029;-84
2022/01/22 08:22:26;;;;;;;11.52;5.45;;;51.20;2227.20;;;;;;4897879;29;19914;-87
2022/01/22 08:24:54;;;;;;;9.60;5.40;;;51.20;2227.20;;;;;;4898044;29;20092;-87
2022/01/22 08:29:55;;;;;;;13.57;5.30;;;51.20;2227.20;;;;;;4900682;29;20080;-84
2022/01/22 08:37:50;;;;;;;18.23;8.85;;;26.50;2201.60;;;;;;4916477;29;20111;-74
2022/01/22 08:40:16;;;;;;;;;;;26.50;2201.60;;;;;;4917214;29;20037;-83
2022/01/22 08:42:44;;;;;;;9.77;4.20;;;26.40;2201.60;;;;;;4909204;29;20347;-74
2022/01/22 08:45:10;;;;;;;7.88;5.18;;;26.40;2201.60;;;;;;4907578;29;20076;-84
2022/01/22 08:47:36;;;;;;;;;;;26.20;2201.60;;;;;;4905308;29;20024;-81
2022/01/22 08:50:03;;;;;;;9.52;5.05;;;26.20;2201.60;;;;;;4897842;29;19930;-85
2022/01/22 08:52:32;;;;;;;7.22;3.80;;;26.40;2201.60;;;;;;4897445;29;20037;-74
2022/01/22 08:54:58;;;;;;;10.00;5.22;;;26.40;2201.60;;;;;;4885888;29;20032;-82
2022/01/22 08:57:24;;;;;;;;;;;26.40;2201.60;;;;;;4905599;29;20025;-77
2022/01/22 08:59:50;;;;;;;11.57;5.68;;;26.30;2201.60;;;;;;4907065;29;19911;-86
2022/01/22 09:02:15;;;;;;;;;;;26.30;2201.60;;;;;;4907006;29;20023;-74
2022/01/22 09:04:41;;;;;;;16.20;4.75;;;26.30;2201.60;;;;;;4907672;29;20429;-78
2022/01/22 09:07:08;;;;;;;8.65;4.47;;;26.40;2201.60;;;;;;4897122;29;20520;-74
2022/01/22 09:09:36;;;;;;;10.68;5.15;;;26.40;2201.60;;;;;;4899725;29;20037;-74
2022/01/22 09:12:04;;;;;;;13.23;5.80;;;26.50;2201.60;;;;;;4900847;29;20462;-74
2022/01/22 09:14:29;;;;;;;9.85;4.47;;;26.40;2201.60;;;;;;4900682;29;20040;-86
2022/01/22 09:16:58;;;;;;;;;;;26.40;2201.60;;;;;;4901240;29;20039;-75
2022/01/22 09:19:32;;;;;;;8.13;4.85;;;26.40;2201.60;;;;;;4883828;29;20280;-86
2022/01/22 09:21:58;;;;;;;10.63;4.60;;;26.50;2201.60;;;;;;4905302;29;20028;-76
2022/01/22 09:24:23;;;;;;;;;;;26.50;2201.60;;;;;;4911082;29;20030;-75
2022/01/22 09:26:50;;;;;;;11.00;5.28;;;26.50;2201.60;;;;;;4905581;29;19907;-84
2022/01/22 09:29:16;;;;;;;12.93;5.68;;;51.30;2227.20;;;;;;4900334;29;20020;-80
2022/01/22 09:31:42;;;;;;;;;;;51.40;2227.20;;;;;;4901352;29;20031;-79
2022/01/22 09:34:09;;;;;;;16.85;5.85;;;51.50;2227.20;;;;;;4908011;29;19915;-74
2022/01/22 09:36:35;;;;;;;15.07;6.97;;;51.50;2227.20;;;;;;4909041;29;20021;-84
2022/01/22 09:39:03;;;;;;;14.15;6.18;;;51.60;2227.20;;;;;;4908870;29;20112;-84
2022/01/22 09:41:29;;;;;;;13.68;6.28;;;51.60;2227.20;;;;;;4910285;29;20119;-83
2022/01/22 09:43:56;;;;;;;16.58;9.07;;;51.70;2227.20;;;;;;4902568;29;20055;-82
2022/01/22 09:46:22;;;;;;;17.08;8.68;;;51.70;2227.20;;;;;;4907403;29;20024;-86
2022/01/22 09:48:49;;;;;;;15.55;6.97;;;51.80;2227.20;;;;;;4908206;29;20021;-83
2022/01/22 09:51:16;;;;;;;13.18;7.28;;;51.70;2227.20;;;;;;4919002;29;20024;-83
2022/01/22 09:53:44;;;;;;;;;;;51.70;2227.20;;;;;;4918247;29;20103;-76
2022/01/22 09:56:11;;;;;;;27.05;14.38;;;51.80;2227.20;;;;;;4919162;29;19911;-80
2022/01/22 09:58:37;;;;;;;22.98;13.07;;;52.00;2227.20;;;;;;4918871;29;20040;-77
2022/01/22 10:01:36;;;;;;;23.10;13.02;;;76.80;2227.20;;;;;;4919038;29;20108;-80
2022/01/22 10:04:04;;;;;;;21.35;11.88;;;76.80;2227.20;;;;;;4842059;29;20054;-79
2022/01/22 10:06:53;;;;;;;24.52;11.32;;;76.90;2227.20;;;;;;4842196;29;20037;-79
2022/01/22 10:09:26;;;;;;;21.42;10.13;;;77.10;2227.20;;;;;;4842200;29;20098;-76
2022/01/22 10:12:11;;;;;;;28.85;11.38;;;77.00;2227.20;;;;;;4842171;29;20455;-79
2022/01/22 10:15:02;;;;;;;42.70;21.65;;;76.90;2227.20;;;;;;4841738;29;20064;-74
2022/01/22 10:17:48;;;;;;;17.77;9.10;;;77.00;2227.20;;;;;;4841330;29;20042;-82
2022/01/22 10:20:28;;;;;;;19.05;9.50;;;77.00;2227.20;;;;;;4841145;29;20079;-85
2022/01/22 10:23:16;;;;;;;28.23;13.25;;;77.00;2227.20;;;;;;4842403;29;20536;-83
2022/01/22 10:25:47;;;;;;;16.33;8.25;;;77.10;2227.20;;;;;;4841924;29;20094;-75
2022/01/22 10:28:20;;;;;;;17.35;7.75;;;77.20;2227.20;;;;;;4841924;29;20026;-82
2022/01/22 10:30:46;;;;;;;16.92;8.60;;;77.10;2227.20;;;;;;4842205;29;20053;-85
2022/01/22 10:33:27;;;;;;;15.38;6.70;;;76.90;2227.20;;;;;;4841592;29;20038;-84
2022/01/22 10:35:53;;;;;;;23.27;10.90;;;76.90;2227.20;;;;;;4842054;29;20498;-74
2022/01/22 10:38:21;;;;;;;31.80;14.02;;;76.90;2227.20;;;;;;4841108;29;20058;-78
2022/01/22 10:40:49;;;;;;;32.38;14.85;;;77.00;2227.20;;;;;;4916214;29;20393;-75
2022/01/22 10:48:44;;;;;;;12.63;6.50;;;77.00;2227.20;;;;;;4918009;29;20031;-77
2022/01/22 10:51:15;;;;;;;15.57;7.55;;;77.10;2227.20;;;;;;4917611;29;20028;-74
2022/01/22 10:53:48;;;;;;;16.45;9.07;;;77.10;2227.20;;;;;;4917615;29;20028;-75
2022/01/22 10:56:22;;;;;;;15.10;8.77;;;77.10;2227.20;;;;;;4917548;29;20036;-74
2022/01/22 10:58:58;;;;;;;27.25;13.93;;;77.10;2227.20;;;;;;4917324;29;20115;-75
2022/01/22 11:01:27;;;;;;;13.40;6.88;;;77.20;2227.20;;;;;;4917155;29;20028;-75
2022/01/22 11:04:10;;;;;;;12.40;7.50;;;77.20;2227.20;;;;;;4917506;29;20416;-75
2022/01/22 11:06:50;;;;;;;18.05;9.43;;;77.20;2227.20;;;;;;4917212;29;20084;-75
2022/01/22 11:09:17;;;;;;;20.80;10.95;;;77.30;2227.20;;;;;;4916949;29;20052;-75
2022/01/22 11:11:43;;;;;;;17.40;9.27;;;77.30;2227.20;;;;;;4898967;29;20036;-78
2022/01/22 11:14:10;;;;;;;;;;;77.20;2227.20;;;;;;4902355;29;20024;-75
2022/01/22 11:16:40;;;;;;;;;;;77.30;2227.20;;;;;;4907058;29;19914;-74
2022/01/22 11:19:09;;;;;;;16.35;8.30;;;77.40;2227.20;;;;;;4906098;29;19915;-74
2022/01/22 11:21:40;;;;;;;15.60;8.20;;;77.30;2227.20;;;;;;4905777;29;20024;-76
2022/01/22 11:24:07;;;;;;;13.60;7.28;;;77.40;2227.20;;;;;;4898240;29;20035;-75
2022/01/22 11:26:33;;;;;;;27.48;13.27;;;77.40;2227.20;;;;;;4898141;29;20024;-76
2022/01/22 11:28:59;;;;;;;;;;;77.30;2227.20;;;;;;4898303;29;20501;-75
2022/01/22 11:31:26;;;;;;;30.80;14.70;;;77.40;2227.20;;;;;;4896978;29;19908;-75
2022/01/22 11:33:54;;;;;;;23.02;11.73;;;77.60;2227.20;;;;;;4906047;29;20043;-74
2022/01/22 11:36:22;;;;;;;15.45;8.13;;;77.70;2227.20;;;;;;4911734;29;20043;-76
2022/01/22 11:38:53;;;;;;;14.55;8.23;;;77.70;2227.20;;;;;;4897569;29;20061;-77
2022/01/22 11:41:21;;;;;;;20.17;9.60;;;77.60;2227.20;;;;;;4897732;29;20028;-76
2022/01/22 11:44:09;;;;;;;26.48;12.35;;;77.50;2227.20;;;;;;4896567;29;20055;-74
2022/01/22 11:46:42;;;;;;;26.35;12.02;;;77.40;2227.20;;;;;;4897851;29;20025;-75
2022/01/22 11:49:17;;;;;;;18.38;10.52;;;77.00;2227.20;;;;;;4897724;29;20084;-75
2022/01/22 11:51:48;;;;;;;18.80;10.18;;;77.00;2227.20;;;;;;4897679;29;20123;-75
2022/01/22 11:54:16;;;;;;;32.72;16.88;;;76.90;2227.20;;;;;;4896394;29;20024;-74
2022/01/22 11:56:48;;;;;;;34.08;16.48;;;77.00;2227.20;;;;;;4897565;29;20063;-74
2022/01/22 11:59:19;;;;;;;32.92;16.52;;;76.90;2227.20;;;;;;4902512;29;20131;-75
2022/01/22 12:01:50;;;;;;;35.58;18.48;;;77.10;2227.20;;;;;;4889801;29;20426;-75
2022/01/22 12:04:22;;;;;;;34.22;17.30;;;77.00;2227.20;;;;;;4907458;29;20488;-74
2022/01/22 12:07:03;;;;;;;29.55;16.85;;;52.10;2227.20;;;;;;4897427;29;20111;-76
2022/01/22 12:10:05;;;;;;;27.73;16.02;;;76.80;2227.20;;;;;;4897307;29;20040;-74
2022/01/22 12:15:30;;;;;;;29.23;17.08;;;77.10;2227.20;;;;;;4897405;29;20079;-74
2022/01/22 12:18:07;;;;;;;32.38;18.73;;;52.10;2227.20;;;;;;4887204;29;20049;-75
2022/01/22 12:23:05;;;;;;;45.03;19.70;;;76.90;2227.20;;;;;;4897577;29;20091;-75
2022/01/22 12:25:31;;;;;;;33.38;19.02;;;76.80;2227.20;;;;;;4897162;29;20034;-76
2022/01/22 12:27:58;;;;;;;32.45;18.08;;;76.90;2227.20;;;;;;4897326;29;20021;-75
2022/01/22 12:30:45;;;;;;;40.15;20.38;;;77.00;2227.20;;;;;;4897126;29;20562;-74
2022/01/22 12:33:14;;;;;;;;;;;76.90;2227.20;;;;;;4897580;29;20426;-75
2022/01/22 12:35:48;;;;;;;28.63;17.15;;;76.90;2227.20;;;;;;4880599;29;19907;-76
2022/01/22 12:40:58;;;;;;;29.80;15.00;;;76.80;2227.20;;;;;;4896962;29;20509;-77
2022/01/22 12:43:30;;;;;;;25.73;14.93;;;76.90;2227.20;;;;;;4903175;29;20494;-74
2022/01/22 12:46:01;;;;;;;27.15;16.20;;;76.80;2227.20;;;;;;4912219;29;20017;-75
2022/01/22 12:48:32;;;;;;;26.13;15.18;;;77.10;2227.20;;;;;;4910712;29;20068;-75
2022/01/22 12:51:07;;;;;;;30.50;15.90;;;77.00;2227.20;;;;;;4910425;29;20028;-79
2022/01/22 12:53:35;;;;;;;33.50;17.13;;;77.10;2227.20;;;;;;4908931;29;20024;-79
2022/01/22 12:56:24;;;;;;;21.88;12.15;;;77.20;2227.20;;;;;;4911641;29;20092;-74
2022/01/22 12:58:47;;;;;;;17.90;11.37;;;77.10;2227.20;;;;;;4916860;29;20036;-75
2022/01/22 13:01:23;;;;;;;;;;;77.20;2227.20;;;;;;4920041;29;20271;-75
2022/01/22 13:03:51;;;;;;;24.10;11.95;;;77.10;2227.20;;;;;;4910420;29;19911;-78
2022/01/22 13:06:21;;;;;;;22.73;12.48;;;77.10;2227.20;;;;;;4910325;29;20025;-75
2022/01/22 13:08:47;;;;;;;21.42;11.82;;;77.30;2227.20;;;;;;4908630;29;20028;-77
2022/01/22 13:11:18;;;;;;;19.02;10.73;;;77.50;2227.20;;;;;;4908959;29;20028;-76
2022/01/22 13:13:47;;;;;;;24.02;11.98;;;77.40;2227.20;;;;;;4910495;29;20469;-80
2022/01/22 13:16:17;;;;;;;18.08;11.32;;;77.40;2227.20;;;;;;4909053;29;20031;-77
2022/01/22 13:18:49;;;;;;;19.50;11.95;;;77.60;2227.20;;;;;;4896615;29;20593;-77
2022/01/22 13:21:18;;;;;;;18.80;11.75;;;77.40;2227.20;;;;;;4902336;29;20034;-73
2022/01/22 13:23:46;;;;;;;21.65;11.82;;;77.50;2227.20;;;;;;4902369;29;20024;-81
2022/01/22 13:26:13;;;;;;;21.60;11.18;;;77.50;2227.20;;;;;;4919643;29;20087;-74
2022/01/22 13:28:40;;;;;;;22.95;11.43;;;77.60;2227.20;;;;;;4919284;29;20051;-74
2022/01/22 13:31:11;;;;;;;26.23;13.05;;;77.60;2227.20;;;;;;4918907;29;20491;-74
2022/01/22 13:49:37;;;;;;;15.07;8.57;;;77.50;2227.20;;;;;;4919016;29;20119;-75
2022/01/22 13:52:12;;;;;;;29.40;15.18;;;77.20;2227.20;;;;;;4918774;29;20020;-80
2022/01/22 13:54:49;;;;;;;29.02;15.27;;;77.20;2227.20;;;;;;4900998;29;20507;-79
2022/01/22 13:57:24;;;;;;;35.60;18.30;;;77.20;2227.20;;;;;;4918928;29;20028;-74
2022/01/22 13:59:53;;;;;;;53.90;22.95;;;77.20;2227.20;;;;;;4918578;29;20040;-74
2022/01/22 14:04:51;;;;;;;49.92;23.42;;;77.30;2227.20;;;;;;4918702;29;20032;-75
2022/01/22 14:07:16;;;;;;;33.58;18.17;;;77.30;2227.20;;;;;;4918050;29;20028;-75
2022/01/22 14:09:51;;;;;;;27.60;15.13;;;77.20;2227.20;;;;;;4918935;29;20087;-76
2022/01/22 14:12:17;;;;;;;27.20;14.63;;;77.30;2227.20;;;;;;4918414;29;20071;-81
2022/01/22 14:15:04;;;;;;;38.00;17.77;;;77.20;2227.20;;;;;;4918766;29;20020;-80
2022/01/22 14:17:41;;;;;;;40.63;19.02;;;77.30;2227.20;;;;;;4901562;29;20056;-79
2022/01/22 14:20:07;;;;;;;42.22;21.20;;;77.10;2227.20;;;;;;4901335;29;20040;-75
2022/01/22 14:22:58;;;;;;;37.55;19.60;;;77.20;2227.20;;;;;;4918429;29;20056;-80
2022/01/22 14:25:24;;;;;;;31.33;15.85;;;77.00;2227.20;;;;;;4918386;29;20035;-74
2022/01/22 14:27:59;;;;;;;27.60;14.55;;;76.90;2227.20;;;;;;4918189;29;20028;-74
2022/01/22 14:30:42;;;;;;;35.83;17.67;;;52.10;2227.20;;;;;;4918006;29;20032;-78
2022/01/22 14:33:09;;;;;;;40.28;16.08;;;52.10;2227.20;;;;;;4895958;29;20028;-80
2022/01/22 14:35:36;;;;;;;30.15;15.10;;;52.00;2227.20;;;;;;4909136;29;20024;-77
2022/01/22 14:38:33;;;;;;;34.33;16.80;;;51.50;2227.20;;;;;;4908240;29;20063;-75
2022/01/22 14:46:52;;;;;;;37.60;17.67;;;52.00;2227.20;;;;;;4908920;29;20682;-76
2022/01/22 14:49:20;;;;;;;39.58;17.77;;;51.90;2227.20;;;;;;4909736;29;20031;-75
2022/01/22 14:51:46;;;;;;;35.53;17.33;;;51.90;2227.20;;;;;;4908385;29;20029;-81
2022/01/22 14:54:12;;;;;;;;;;;51.90;2227.20;;;;;;4917634;29;20495;-81
2022/01/22 14:56:37;;;;;;;35.28;17.23;;;52.00;2227.20;;;;;;4889515;29;19915;-81
2022/01/22 14:59:03;;;;;;;;;;;52.00;2227.20;;;;;;4908303;29;20068;-79